CMB828 Details

Departure: Daniel K Inouye International Airport (PHNL)
Arrival: Wake Island Airfield (PWAK)
Route: KEOLA2 PUPPI 2200N/17000W 2200N/18000E 2100N/17000E AWK
Notes: USTRANSCOM CONTRACT FLIGHT | LIMITED FUEL AVBL TO NON-DOD ACFT, TANKERING RCMD


Current Weather Information
PHNL 190653Z 05013G17KT 10SM FEW028 FEW045 22/14 A3008 RMK AO2 SLP184 T02220139
PWAK 190658Z AUTO 06007KT 9999 FEW031 26/19 A2993 RMK AO2 SLPNO